Terminal Aerodrome Forecast
Issued by NWS Duluth, MN

Home | Current Version | Previous Version | Text Only | Print | Product List | Glossary On
Versions: 1 2 3 4 5 6 7 8 9 10 11 12 13 14
645
FTUS43 KDLH 132341
TAFINL
TAF
KINL 132341Z 1400/1424 18006KT P6SM -SN BKN035 OVC070
      TEMPO 1400/1402 BKN028 OVC035
     FM140200 19007KT P6SM BKN035 WS018/23040KT
     FM140400 21008KT P6SM SCT035 WS018/24040KT
     FM141000 23005KT P6SM SCT020
     FM142100 21003KT P6SM SCT250=

USA.gov is the U.S. government's official web portal to all federal, state and local government web resources and services.